首页
METAR-TAF:

METAR-TAF

机场 :

Cerklje ob Krki, 斯洛文尼亚

纬度: 45-53-59N, 经度: 15-30-55E, 海拔: 157米

当前天气观测

该预报发布于18分钟前的10:00 UTC
风速2节,风向多变
温度 22°C
湿度 83%
气压 1005 hPa
能见度10公里或以上
大阵雨

METAR: LJCE 011000Z AUTO VRB02KT 9999 +SHRA BKN035/// BKN100/// BKN120/// 22/19 Q1005

时间: 12:18 (10:18 UTC)

预报

该预报发布于2小时和18分钟前的08:00 UTC
预报有效从01日的 09点(UTC)到 01日的 18点(UTC)
风速2节,风向西转西南
能见度10公里或以上
少量云层高于4500英尺
短暂存在
从 01日的 09点(UTC)到 01日的 18点(UTC)
少量云层高于4500英尺, 积雨云.
几率 40% :
短暂存在
从 01日的 09点(UTC)到 01日的 18点(UTC)
风速15节,风向西,有时为25节阵风
能見度: 5000
散云层高于4000英尺, 积雨云.
多云层高于5000英尺
雷暴, 雨
成为
从 01日的 10点(UTC)到 01日的 12点(UTC)
风速12节,风向西转西南

TAF: LJCE 010800Z 0109/0118 25002KT 9999 FEW045 TEMPO 0109/0118 FEW045CB PROB40 TEMPO 0109/0118 26015G25KT 5000 TSRA SCT040CB BKN050 BECMG 0110/0112 24012KT

超过4000个机场的气象观测和天气预报(METAR&TAF报告)。

可查询的气象台以黄色和红色小点在地图上表示。

将鼠标移到小点上方,可查看气象台名称。

然后点击查看天气观测和预报。

如需切换地图:点击带黑十字的绿色按钮放大地图;点击带横线的绿色按钮缩小地图;或者点击绿色箭头查看邻近地区的地图。


METAR-TAF: